Airfield :
LOGIN :

Register | Disclaimer

   EN    FR    IT 

 










Legend :    VFR   Marginal VFR   IFR   Intensive IFR   Very Intensive IFR
Visi :
Ceiling :
>= 8 km
>= 3000ft
5 to 8 km
1000 to 3000 ft
1500m to 5 km
500 to 1000 ft
800 to 1500m
200 to 500 ft
< 800m
< 200 ft
Symbols :   Thunderstorms  Fog  Heavy snow  Heavy precipitations  Wind > 20 kt
SIGMETs :     Misc.  Thunderstorms  Icing  Turbulence  Mountain Waves  Volcanic Ashes







- Airport Elevation : 256 ft
- IATA code : CFR
- Download approach charts


LFRK - Caen

CURRENT METAR :
  • 181200Z AUTO 26007KT 230V290 9999 SCT036 11/05 Q1026 NOSIG

EXPIRED METARs :
  • 181130Z AUTO 28008KT CAVOK 10/06 Q1027 NOSIG
  • 181100Z AUTO 26008KT CAVOK 10/05 Q1026 NOSIG
  • 181030Z AUTO 25007KT CAVOK 10/06 Q1027 NOSIG
  • 181000Z AUTO 27007KT 9999 FEW029 09/05 Q1027 NOSIG
  • 180930Z AUTO 25006KT 9999 BKN029 07/05 Q1027 NOSIG

TAF TAF LFRK
Valid from the 18 at 12:00 until the 18 at 21:00 UTC


181100Z 1812/1821 26008KT 9999 SCT030
TEMPO 1817/1821 5000 RA BKN015
Met : +33 2 31 26 68 11
No reported NOTAMs for that airfield.



MET'MAP, your aeronautical weather chart ! - Copyright ORBIFLY December 2007 - Disclaimer

ORBIFLY MET'MAP TEAM :

Programming & Development : Alexandra Zaïnal
Concept & Development : Baudouin d'Aumeries
Co-Development & Prog : Marc-Olivier Méhu
Technical & hardware support : Manuel Goepfert

Contact : metmap@orbifly.com




SOURCES & CREDITS :

   NOAA